Time;durP1;ratioP1;P1;durP2;ratioP2;P2;SDS_P1;SDS_P2;PMS_P1;PMS_P2;Temp;Humidity;BMP_temperature;BMP_pressure;BME280_temperature;BME280_humidity;BME280_pressure;Samples;Min_cycle;Max_cycle;Signal;HPM_P1;HPM_P2
2022/03/13 00:02:08;;;;;;;70.03;29.10;;;;;;;-1.65;54.53;102344.72;5008977;28;20148;-61
2022/03/13 00:04:35;;;;;;;74.28;32.53;;;;;;;-1.68;55.66;102343.66;5013422;28;20061;-61
2022/03/13 00:07:16;;;;;;;75.35;33.50;;;;;;;-1.70;55.40;102346.09;5012892;28;20073;-61
2022/03/13 00:09:45;;;;;;;83.15;34.30;;;;;;;-1.72;55.49;102340.03;5004473;28;20049;-61
2022/03/13 00:12:15;;;;;;;85.93;36.20;;;;;;;-1.73;56.29;102345.00;5008886;28;20049;-59
2022/03/13 00:14:42;;;;;;;83.82;34.38;;;;;;;-1.76;56.22;102342.25;5012412;28;20050;-58
2022/03/13 00:17:08;;;;;;;90.43;38.08;;;;;;;-1.78;55.97;102342.16;5008941;28;20046;-59
2022/03/13 00:19:35;;;;;;;84.53;35.08;;;;;;;-1.78;56.19;102346.34;5002487;28;20038;-59
2022/03/13 00:22:01;;;;;;;73.15;32.53;;;;;;;-1.81;56.64;102346.16;5008697;28;20049;-59
2022/03/13 00:24:28;;;;;;;77.70;32.80;;;;;;;-1.84;56.98;102345.94;5003292;28;20411;-59
2022/03/13 00:26:56;;;;;;;63.28;28.63;;;;;;;-1.87;57.00;102345.75;5003971;28;20096;-60
2022/03/13 00:29:23;;;;;;;61.88;26.92;;;;;;;-1.91;56.73;102340.47;5007652;28;20395;-60
2022/03/13 00:31:49;;;;;;;63.15;29.30;;;;;;;-1.93;56.90;102342.00;5004170;28;20053;-60
2022/03/13 00:34:16;;;;;;;59.70;28.55;;;;;;;-1.95;56.92;102342.69;5007179;28;20069;-61
2022/03/13 00:36:42;;;;;;;64.88;28.30;;;;;;;-1.98;57.14;102332.31;5003491;28;20052;-60
2022/03/13 00:39:10;;;;;;;51.55;24.35;;;;;;;-2.02;57.45;102331.22;5006908;28;20495;-60
2022/03/13 00:41:36;;;;;;;51.83;24.67;;;;;;;-2.06;56.98;102331.81;5000804;28;20112;-60
2022/03/13 00:44:05;;;;;;;54.03;25.20;;;;;;;-2.03;56.74;102329.47;5009635;28;20057;-60
2022/03/13 00:46:31;;;;;;;56.38;24.30;;;;;;;-2.03;56.82;102324.38;5011120;28;20411;-60
2022/03/13 00:48:58;;;;;;;56.95;24.27;;;;;;;-2.04;56.92;102322.63;5006049;28;20487;-61
2022/03/13 00:51:25;;;;;;;50.08;21.67;;;;;;;-2.04;56.38;102317.53;5008199;28;20057;-60
2022/03/13 00:53:52;;;;;;;55.40;23.25;;;;;;;-2.05;56.58;102315.78;5002063;28;20050;-59
2022/03/13 00:56:18;;;;;;;44.65;19.20;;;;;;;-2.06;56.45;102319.09;5009050;28;20053;-60
2022/03/13 00:58:45;;;;;;;45.05;19.67;;;;;;;-2.05;56.25;102325.06;5011738;28;20053;-60
2022/03/13 01:01:13;;;;;;;39.55;17.60;;;;;;;-2.05;56.61;102328.47;5008509;28;20053;-60
2022/03/13 01:03:51;;;;;;;43.85;19.08;;;;;;;-2.07;57.07;102327.50;5012390;28;20726;-60
2022/03/13 01:06:18;;;;;;;38.85;18.05;;;;;;;-2.09;57.03;102318.84;5007479;28;20054;-60
2022/03/13 01:08:46;;;;;;;46.63;18.75;;;;;;;-2.09;57.65;102320.53;5008682;28;20045;-61
2022/03/13 01:11:14;;;;;;;47.30;19.80;;;;;;;-2.10;57.68;102317.09;5000548;28;20050;-60
2022/03/13 01:13:40;;;;;;;37.50;18.08;;;;;;;-2.12;58.28;102318.66;5009048;28;20046;-60
2022/03/13 01:16:15;;;;;;;44.30;18.77;;;;;;;-2.15;58.08;102315.91;5003065;28;20054;-60
2022/03/13 01:18:44;;;;;;;40.03;18.20;;;;;;;-2.19;57.82;102320.69;5010955;28;20355;-60
2022/03/13 01:21:11;;;;;;;42.42;18.33;;;;;;;-2.22;57.48;102312.06;5003504;28;20051;-60
2022/03/13 01:23:38;;;;;;;40.65;17.85;;;;;;;-2.22;57.17;102321.34;5009846;28;20153;-60
2022/03/13 01:26:39;;;;;;;46.45;19.52;;;;;;;-2.22;57.46;102318.81;5006372;28;20061;-60
2022/03/13 01:29:08;;;;;;;42.45;18.60;;;;;;;-2.23;56.64;102320.47;5010281;28;20050;-60
2022/03/13 01:31:37;;;;;;;45.05;19.58;;;;;;;-2.23;56.83;102311.97;5002081;28;20126;-60
2022/03/13 01:34:06;;;;;;;44.20;20.55;;;;;;;-2.24;56.96;102317.81;5001765;28;20042;-60
2022/03/13 01:36:33;;;;;;;48.60;19.75;;;;;;;-2.26;56.29;102314.31;5010031;28;20118;-60
2022/03/13 01:39:01;;;;;;;44.33;19.70;;;;;;;-2.26;56.36;102309.22;5009208;28;20454;-60
2022/03/13 01:41:29;;;;;;;45.00;19.42;;;;;;;-2.27;55.80;102308.34;5000292;28;20570;-60
2022/03/13 01:43:56;;;;;;;53.00;22.35;;;;;;;-2.27;56.36;102313.41;5004534;28;20396;-59
2022/03/13 01:46:22;;;;;;;49.65;21.77;;;;;;;-2.27;56.08;102313.41;5009278;28;20054;-60
2022/03/13 01:48:56;;;;;;;42.72;19.02;;;;;;;-2.26;55.64;102314.31;5007469;28;20050;-60
2022/03/13 01:51:23;;;;;;;33.17;15.57;;;;;;;-2.26;55.84;102314.31;5002956;28;20443;-59
2022/03/13 01:53:53;;;;;;;39.95;16.73;;;;;;;-2.26;55.13;102305.03;5011115;28;20077;-60
2022/03/13 01:56:20;;;;;;;46.15;18.70;;;;;;;-2.28;55.68;102308.22;5005021;28;20414;-60
2022/03/13 01:58:50;;;;;;;50.15;20.33;;;;;;;-2.30;56.06;102299.63;5002604;28;20050;-60
2022/03/13 02:01:17;;;;;;;43.35;19.35;;;;;;;-2.32;55.66;102303.72;5006847;28;20049;-60
2022/03/13 02:03:44;;;;;;;38.53;18.17;;;;;;;-2.35;55.85;102308.59;5004284;28;20050;-60
2022/03/13 02:06:11;;;;;;;38.72;16.10;;;;;;;-2.37;56.63;102302.53;5006221;28;20050;-60
2022/03/13 02:08:38;;;;;;;39.17;17.02;;;;;;;-2.40;56.81;102300.66;5002362;28;20483;-60
2022/03/13 02:11:05;;;;;;;37.80;16.70;;;;;;;-2.42;57.15;102307.28;5006954;28;20474;-60
2022/03/13 02:13:34;;;;;;;37.22;16.58;;;;;;;-2.43;57.62;102309.72;5008520;28;20479;-60
2022/03/13 02:16:01;;;;;;;36.60;16.83;;;;;;;-2.45;57.55;102316.38;5011340;28;20509;-60
2022/03/13 02:18:27;;;;;;;35.55;16.75;;;;;;;-2.48;57.84;102317.03;5004079;28;20109;-60
2022/03/13 02:20:54;;;;;;;36.15;16.08;;;;;;;-2.50;58.07;102321.13;5003311;28;20045;-60
2022/03/13 02:23:24;;;;;;;35.17;16.48;;;;;;;-2.51;58.04;102321.03;5008017;28;20054;-60
2022/03/13 02:25:52;;;;;;;31.00;15.52;;;;;;;-2.52;57.84;102319.25;5003702;28;20049;-60
2022/03/13 02:28:20;;;;;;;37.97;16.58;;;;;;;-2.54;58.22;102311.53;5003370;28;20054;-60
2022/03/13 02:30:47;;;;;;;35.95;16.67;;;;;;;-2.57;58.13;102317.28;5002686;28;20047;-60
2022/03/13 02:33:17;;;;;;;39.55;16.27;;;;;;;-2.59;58.09;102318.84;5010869;28;20053;-57
2022/03/13 02:35:43;;;;;;;31.45;15.75;;;;;;;-2.62;58.31;102318.59;5005345;28;20104;-60
2022/03/13 02:38:09;;;;;;;29.42;14.63;;;;;;;-2.63;58.57;102315.94;5005622;28;20498;-60
2022/03/13 02:40:37;;;;;;;35.90;15.88;;;;;;;-2.64;58.31;102320.13;5009182;28;20049;-59
2022/03/13 02:43:04;;;;;;;32.83;13.68;;;;;;;-2.64;58.42;102320.13;5002483;28;20146;-60
2022/03/13 02:45:32;;;;;;;34.50;15.63;;;;;;;-2.64;58.38;102321.78;5004448;28;20097;-60
2022/03/13 02:48:01;;;;;;;33.63;14.50;;;;;;;-2.68;58.34;102323.25;4996175;28;20054;-59
2022/03/13 02:50:27;;;;;;;37.78;15.90;;;;;;;-2.72;58.66;102316.19;5002925;28;20042;-60
2022/03/13 02:52:54;;;;;;;29.92;13.52;;;;;;;-2.72;58.86;102318.72;5001839;28;20042;-60
2022/03/13 02:55:20;;;;;;;36.13;15.07;;;;;;;-2.71;58.74;102312.88;5007559;28;20043;-60
2022/03/13 02:57:48;;;;;;;30.38;13.13;;;;;;;-2.71;58.50;102310.34;5006409;28;20046;-60
2022/03/13 03:00:16;;;;;;;34.35;14.70;;;;;;;-2.72;58.49;102308.56;5007552;28;20121;-60
2022/03/13 03:02:43;;;;;;;35.42;14.98;;;;;;;-2.74;59.00;102312.66;5006561;28;20058;-61
2022/03/13 03:05:10;;;;;;;35.03;14.65;;;;;;;-2.76;58.99;102314.22;5005905;28;20079;-59
2022/03/13 03:07:37;;;;;;;37.95;14.77;;;;;;;-2.79;58.44;102308.91;5006848;28;20081;-61
2022/03/13 03:10:06;;;;;;;34.90;15.77;;;;;;;-2.81;58.40;102309.59;5008890;28;20042;-60
2022/03/13 03:12:34;;;;;;;38.45;16.77;;;;;;;-2.84;58.67;102305.19;5004666;28;20050;-60
2022/03/13 03:15:02;;;;;;;34.47;16.08;;;;;;;-2.86;58.52;102307.59;5001081;28;20469;-60
2022/03/13 03:17:28;;;;;;;37.47;17.42;;;;;;;-2.87;58.61;102310.91;5007177;28;20056;-59
2022/03/13 03:19:55;;;;;;;37.70;16.05;;;;;;;-2.89;58.87;102309.03;5006216;28;20038;-60
2022/03/13 03:22:21;;;;;;;35.33;16.45;;;;;;;-2.91;58.90;102314.00;5008752;28;20092;-59
2022/03/13 03:24:48;;;;;;;38.22;17.80;;;;;;;-2.95;58.11;102312.03;5009051;28;20485;-60
2022/03/13 03:27:16;;;;;;;43.10;19.25;;;;;;;-2.97;57.55;102313.59;5009954;28;20104;-60
2022/03/13 03:29:43;;;;;;;66.70;22.52;;;;;;;-2.98;58.07;102310.94;5008187;28;20134;-61
2022/03/13 03:32:11;;;;;;;52.60;20.08;;;;;;;-2.96;58.40;102309.38;5008983;28;20054;-58
2022/03/13 03:34:37;;;;;;;53.80;21.83;;;;;;;-2.97;58.80;102307.63;5004992;28;20510;-60
2022/03/13 03:37:04;;;;;;;57.95;22.45;;;;;;;-2.98;59.79;102314.34;5005200;28;20050;-59
2022/03/13 03:39:32;;;;;;;68.97;24.63;;;;;;;-2.98;60.18;102310.94;5008123;28;20046;-58
2022/03/13 03:41:59;;;;;;;69.95;25.27;;;;;;;-2.98;60.17;102310.94;5013772;28;20049;-59
2022/03/13 03:44:26;;;;;;;61.88;22.83;;;;;;;-2.98;60.09;102308.41;5002946;28;20505;-59
2022/03/13 03:46:55;;;;;;;63.63;22.92;;;;;;;-2.98;59.96;102311.81;5008307;28;20050;-59
2022/03/13 03:49:22;;;;;;;64.07;23.77;;;;;;;-2.96;59.94;102314.47;5007664;28;20054;-59
2022/03/13 03:51:49;;;;;;;53.28;22.67;;;;;;;-2.95;60.01;102313.69;5012745;28;20052;-59
2022/03/13 03:54:15;;;;;;;50.92;22.50;;;;;;;-2.95;60.62;102317.09;5008698;28;20046;-58
2022/03/13 03:56:42;;;;;;;55.20;20.50;;;;;;;-2.93;60.43;102319.75;5011288;28;20042;-58
2022/03/13 03:59:09;;;;;;;49.40;19.48;;;;;;;-2.94;60.44;102315.44;5008852;28;20457;-59
2022/03/13 04:01:37;;;;;;;50.70;20.42;;;;;;;-2.97;60.42;102310.16;5012385;28;20045;-59
2022/03/13 04:04:05;;;;;;;52.10;20.17;;;;;;;-2.99;60.40;102319.31;5013587;28;20487;-59
2022/03/13 04:06:34;;;;;;;44.38;19.17;;;;;;;-3.03;60.86;102314.81;5008383;28;20060;-59
2022/03/13 04:09:00;;;;;;;47.85;20.52;;;;;;;-3.10;61.51;102313.47;5012879;28;20545;-59
2022/03/13 04:11:27;;;;;;;54.47;21.02;;;;;;;-3.11;61.32;102318.44;5006244;28;20050;-59
2022/03/13 04:13:53;;;;;;;55.45;20.85;;;;;;;-3.13;61.63;102323.38;5006195;28;20053;-59
2022/03/13 04:16:20;;;;;;;45.75;19.42;;;;;;;-3.15;61.36;102316.44;5008047;28;20061;-60
2022/03/13 04:18:47;;;;;;;37.10;16.35;;;;;;;-3.16;61.32;102320.63;5004954;28;20491;-59
2022/03/13 04:21:15;;;;;;;36.03;15.52;;;;;;;-3.17;61.37;102321.41;5009399;28;20601;-59
2022/03/13 04:23:42;;;;;;;35.97;15.55;;;;;;;-3.19;61.11;102326.38;5005139;28;20466;-59
2022/03/13 04:26:09;;;;;;;34.58;15.52;;;;;;;-3.18;61.27;102323.06;5009625;28;20049;-59
2022/03/13 04:28:36;;;;;;;41.75;15.23;;;;;;;-3.17;61.07;102319.75;5013657;28;21021;-59
2022/03/13 04:31:05;;;;;;;34.53;15.30;;;;;;;-3.17;61.11;102329.00;5012950;28;20450;-59
2022/03/13 04:33:34;;;;;;;40.58;15.82;;;;;;;-3.17;60.83;102324.81;5005389;28;20138;-59
2022/03/13 04:36:03;;;;;;;39.97;15.60;;;;;;;-3.15;60.76;102331.66;5001210;28;20494;-59
2022/03/13 04:38:29;;;;;;;31.52;14.80;;;;;;;-3.16;60.71;102325.69;5003661;28;20061;-59
2022/03/13 04:40:58;;;;;;;33.45;14.88;;;;;;;-3.15;60.61;102322.38;5017299;28;20042;-58
2022/03/13 04:43:26;;;;;;;37.22;15.73;;;;;;;-3.13;60.82;102314.88;5008751;28;20064;-59
2022/03/13 04:45:54;;;;;;;37.08;15.93;;;;;;;-3.15;60.69;102326.56;5006326;28;20092;-59
2022/03/13 04:48:20;;;;;;;33.40;15.60;;;;;;;-3.17;60.61;102318.88;5006496;28;20468;-60
2022/03/13 04:50:48;;;;;;;40.28;17.88;;;;;;;-3.19;60.87;102320.41;5008446;28;20091;-59
2022/03/13 04:53:15;;;;;;;34.25;17.20;;;;;;;-3.19;60.83;102325.47;5013733;28;20406;-59
2022/03/13 04:55:42;;;;;;;36.25;17.50;;;;;;;-3.22;60.56;102336.28;5007056;28;20050;-59
2022/03/13 04:58:10;;;;;;;37.90;16.80;;;;;;;-3.22;60.79;102332.88;5008444;28;20418;-59
2022/03/13 05:00:37;;;;;;;34.75;16.73;;;;;;;-3.21;61.14;102330.44;5008557;28;20049;-59
2022/03/13 05:03:04;;;;;;;38.67;17.70;;;;;;;-3.20;60.94;102329.66;5012935;28;20078;-59
2022/03/13 05:05:31;;;;;;;34.72;16.77;;;;;;;-3.18;60.50;102328.13;5007956;28;20049;-59
2022/03/13 05:07:57;;;;;;;33.33;16.35;;;;;;;-3.15;60.11;102326.56;5006975;28;20041;-60
2022/03/13 05:10:24;;;;;;;40.40;17.02;;;;;;;-3.18;60.28;102333.19;5002701;28;20054;-59
2022/03/13 05:12:51;;;;;;;45.72;17.98;;;;;;;-3.20;60.48;102329.66;5005959;28;20046;-59
2022/03/13 05:15:19;;;;;;;36.75;16.48;;;;;;;-3.20;60.29;102339.81;5009073;28;20081;-60
2022/03/13 05:17:46;;;;;;;39.65;17.88;;;;;;;-3.21;60.41;102332.97;5007183;28;20050;-59
2022/03/13 05:20:13;;;;;;;44.13;18.08;;;;;;;-3.20;60.42;102337.28;5007190;28;20046;-59
2022/03/13 05:22:39;;;;;;;39.30;17.35;;;;;;;-3.20;60.24;102339.81;5005164;28;20463;-59
2022/03/13 05:25:07;;;;;;;41.35;18.65;;;;;;;-3.19;60.35;102340.69;5006547;28;20054;-59
2022/03/13 05:27:33;;;;;;;40.70;16.27;;;;;;;-3.18;60.34;102343.34;5001845;28;20047;-59
2022/03/13 05:29:59;;;;;;;41.42;17.25;;;;;;;-3.15;60.59;102344.34;5008078;28;20411;-60
2022/03/13 05:32:27;;;;;;;36.53;17.83;;;;;;;-3.15;60.32;102341.78;5008481;28;20051;-58
2022/03/13 05:34:54;;;;;;;37.92;17.42;;;;;;;-3.17;60.77;102345.09;5000120;28;20057;-60
2022/03/13 05:37:21;;;;;;;49.00;21.70;;;;;;;-3.15;61.08;102346.88;5009437;28;20057;-60
2022/03/13 05:39:47;;;;;;;65.47;28.02;;;;;;;-3.13;61.13;102351.28;5000040;28;20046;-59
2022/03/13 05:42:14;;;;;;;61.25;27.25;;;;;;;-3.10;60.75;102355.72;5016425;28;20050;-58
2022/03/13 05:44:40;;;;;;;55.85;24.08;;;;;;;-3.09;61.03;102358.38;4999923;28;20420;-59
2022/03/13 05:47:07;;;;;;;56.55;23.27;;;;;;;-3.06;61.63;102366.22;5007358;28;20050;-59
2022/03/13 05:49:34;;;;;;;55.80;23.73;;;;;;;-3.03;61.95;102368.09;5005348;28;20411;-59
2022/03/13 05:52:01;;;;;;;56.83;24.35;;;;;;;-3.00;62.33;102365.75;5012053;28;20054;-59
2022/03/13 05:54:27;;;;;;;56.08;23.98;;;;;;;-2.95;62.60;102356.81;5013001;28;20454;-59
2022/03/13 05:56:54;;;;;;;59.40;26.08;;;;;;;-2.87;62.71;102358.25;5006220;28;20084;-59
2022/03/13 05:59:22;;;;;;;55.80;24.77;;;;;;;-2.80;62.77;102350.31;5004751;28;20056;-59
2022/03/13 06:01:49;;;;;;;48.40;22.80;;;;;;;-2.72;62.82;102351.72;5002049;28;20038;-59
2022/03/13 06:04:15;;;;;;;52.45;22.67;;;;;;;-2.62;62.83;102355.78;5008076;28;20056;-59
2022/03/13 06:06:44;;;;;;;55.75;24.38;;;;;;;-2.52;63.44;102347.19;4998483;28;20046;-59
2022/03/13 06:09:10;;;;;;;49.78;23.02;;;;;;;-2.40;63.50;102353.13;5003449;28;20133;-59
2022/03/13 06:11:36;;;;;;;49.67;24.42;;;;;;;-2.29;63.52;102350.53;5006001;28;20482;-59
2022/03/13 06:14:03;;;;;;;55.17;25.23;;;;;;;-2.14;63.01;102360.88;5004677;28;20058;-59
2022/03/13 06:16:30;;;;;;;56.10;25.50;;;;;;;-1.97;63.10;102359.50;5004015;28;20061;-59
2022/03/13 06:18:56;;;;;;;64.35;28.02;;;;;;;-1.78;62.83;102362.50;5007286;28;20048;-59
2022/03/13 06:21:22;;;;;;;56.13;27.02;;;;;;;-1.58;62.59;102357.06;4999751;28;20050;-59
2022/03/13 06:23:50;;;;;;;55.97;26.23;;;;;;;-1.33;62.33;102364.66;4998952;28;20058;-59
2022/03/13 06:26:17;;;;;;;58.22;28.48;;;;;;;-1.04;62.23;102368.22;5004234;28;20042;-59
2022/03/13 06:28:43;;;;;;;63.92;33.28;;;;;;;-0.75;60.99;102373.53;5003423;28;20045;-59
2022/03/13 06:31:10;;;;;;;65.55;33.30;;;;;;;-0.44;60.79;102375.47;5001905;28;20045;-59
2022/03/13 06:33:37;;;;;;;68.35;30.80;;;;;;;-0.14;60.53;102379.88;5003501;28;20142;-59
2022/03/13 06:36:04;;;;;;;63.17;31.83;;;;;;;0.18;59.99;102386.06;4999893;28;20550;-59
2022/03/13 06:38:30;;;;;;;66.85;31.50;;;;;;;0.47;58.92;102386.09;5005167;28;20124;-59
2022/03/13 06:40:58;;;;;;;56.60;29.70;;;;;;;0.77;58.43;102381.91;5002050;28;20500;-59
2022/03/13 06:43:25;;;;;;;67.00;31.55;;;;;;;1.09;57.71;102391.44;5004741;28;20049;-59
2022/03/13 06:45:51;;;;;;;68.25;32.03;;;;;;;1.40;57.19;102386.34;5002073;28;20065;-58
2022/03/13 06:48:21;;;;;;;65.47;32.90;;;;;;;1.70;56.88;102386.25;4994166;28;20046;-60
2022/03/13 06:50:48;;;;;;;66.22;33.78;;;;;;;2.03;56.34;102382.91;5000139;28;20050;-59
2022/03/13 06:53:15;;;;;;;61.10;31.88;;;;;;;2.34;56.19;102387.97;5000160;28;20054;-58
2022/03/13 06:55:41;;;;;;;60.13;31.85;;;;;;;2.67;55.33;102387.94;4999755;28;20061;-60
2022/03/13 06:58:09;;;;;;;71.50;33.47;;;;;;;3.04;54.54;102382.91;5006530;28;20415;-59
2022/03/13 07:00:36;;;;;;;73.70;36.63;;;;;;;3.39;53.36;102376.94;5008670;28;20447;-60
2022/03/13 07:03:02;;;;;;;71.53;36.00;;;;;;;3.74;52.77;102378.56;5003094;28;20049;-60
2022/03/13 07:05:30;;;;;;;57.28;33.15;;;;;;;4.08;52.34;102386.06;5000916;28;20122;-60
2022/03/13 07:07:57;;;;;;;67.90;32.53;;;;;;;4.40;50.67;102384.94;5003647;28;20103;-59
2022/03/13 07:10:24;;;;;;;58.42;32.63;;;;;;;4.70;50.38;102377.66;4998838;28;20054;-60
2022/03/13 07:12:52;;;;;;;58.15;29.60;;;;;;;4.96;48.28;102378.72;5002802;28;20046;-58
2022/03/13 07:15:21;;;;;;;54.85;28.70;;;;;;;5.22;47.69;102382.34;5000470;28;20491;-59
2022/03/13 07:17:47;;;;;;;50.33;29.08;;;;;;;5.52;47.02;102383.53;5004653;28;20522;-59
2022/03/13 07:20:16;;;;;;;54.83;28.38;;;;;;;5.78;45.96;102378.53;5004492;28;20043;-60
2022/03/13 07:22:44;;;;;;;49.88;27.08;;;;;;;6.04;45.01;102384.66;5000844;28;20058;-60
2022/03/13 07:25:11;;;;;;;48.85;27.73;;;;;;;6.28;44.30;102381.28;5003299;28;20411;-60
2022/03/13 07:27:38;;;;;;;49.03;26.75;;;;;;;6.48;43.53;102381.09;5001047;28;20054;-60
2022/03/13 07:30:05;;;;;;;40.05;23.58;;;;;;;6.65;42.33;102379.97;5002650;28;20415;-60
2022/03/13 07:32:34;;;;;;;40.30;23.40;;;;;;;6.85;41.41;102381.53;5001565;28;20062;-59
2022/03/13 07:35:00;;;;;;;37.25;22.00;;;;;;;7.05;41.07;102384.75;5002082;28;20056;-60
2022/03/13 07:37:27;;;;;;;36.25;20.85;;;;;;;7.30;40.85;102381.25;4997194;28;20142;-60
2022/03/13 07:39:54;;;;;;;39.38;22.35;;;;;;;7.52;40.34;102383.66;5003160;28;20116;-59
2022/03/13 07:42:20;;;;;;;39.60;21.85;;;;;;;7.77;40.21;102384.38;4996869;28;20054;-60
2022/03/13 07:44:47;;;;;;;42.22;23.42;;;;;;;7.99;39.38;102379.03;5004550;28;20058;-60
2022/03/13 07:47:13;;;;;;;41.60;23.40;;;;;;;8.28;39.01;102389.28;5005128;28;20057;-60
2022/03/13 07:49:41;;;;;;;43.67;24.38;;;;;;;8.56;38.68;102381.47;5000890;28;20100;-60
2022/03/13 07:52:08;;;;;;;38.78;22.63;;;;;;;8.79;38.29;102385.53;5003486;28;20052;-59
2022/03/13 07:54:35;;;;;;;36.40;22.30;;;;;;;9.05;37.91;102383.59;4998855;28;20050;-60
2022/03/13 07:57:02;;;;;;;33.85;20.02;;;;;;;9.30;37.25;102390.22;5001202;28;20050;-60
2022/03/13 07:59:28;;;;;;;34.97;19.95;;;;;;;9.60;36.98;102399.53;5001303;28;20054;-60
2022/03/13 08:01:55;;;;;;;31.45;17.92;;;;;;;9.86;36.39;102387.13;4997435;28;20038;-60
2022/03/13 08:04:21;;;;;;;25.60;16.42;;;;;;;10.11;34.93;102390.28;5004064;28;20049;-60
2022/03/13 08:06:49;;;;;;;23.75;15.30;;;;;;;10.42;34.67;102385.72;5006599;28;20052;-60
2022/03/13 08:09:16;;;;;;;20.33;14.93;;;;;;;10.70;32.68;102382.75;5010112;28;20471;-58
2022/03/13 08:11:43;;;;;;;25.30;17.50;;;;;;;10.92;31.72;102384.00;5003051;28;20543;-60
2022/03/13 08:14:10;;;;;;;23.48;14.75;;;;;;;11.16;30.90;102378.34;5001693;28;20054;-60
2022/03/13 08:16:36;;;;;;;21.02;12.57;;;;;;;11.44;30.69;102378.72;5002371;28;20050;-60
2022/03/13 08:19:03;;;;;;;23.13;14.38;;;;;;;11.56;28.81;102378.94;5003988;28;20046;-60
2022/03/13 08:21:30;;;;;;;19.67;14.10;;;;;;;11.72;29.61;102375.69;5007400;28;20057;-60
2022/03/13 08:23:57;;;;;;;31.45;18.45;;;;;;;12.00;29.09;102376.94;5006610;28;20080;-60
2022/03/13 08:26:24;;;;;;;32.30;18.40;;;;;;;12.20;28.96;102379.78;5005116;28;20054;-60
2022/03/13 08:28:50;;;;;;;27.73;18.30;;;;;;;12.39;29.29;102376.50;5004571;28;20068;-60
2022/03/13 08:31:17;;;;;;;29.30;19.35;;;;;;;12.74;29.12;102368.19;5000663;28;20062;-60
2022/03/13 08:33:45;;;;;;;28.40;19.48;;;;;;;13.04;29.16;102367.56;5004020;28;20046;-60
2022/03/13 08:36:12;;;;;;;33.13;20.42;;;;;;;13.31;28.72;102364.31;5009351;28;20403;-61
2022/03/13 08:38:38;;;;;;;29.92;19.52;;;;;;;13.55;28.93;102377.50;5007981;28;20050;-61
2022/03/13 08:41:06;;;;;;;28.90;18.35;;;;;;;13.75;27.86;102370.63;5003718;28;20499;-60
2022/03/13 08:43:33;;;;;;;26.92;17.52;;;;;;;13.90;27.11;102368.09;5004079;28;20069;-59
2022/03/13 08:46:00;;;;;;;27.70;18.98;;;;;;;14.09;26.56;102366.44;5005297;28;20050;-60
2022/03/13 08:48:28;;;;;;;29.27;19.02;;;;;;;14.16;26.11;102362.97;5000996;28;20080;-59
2022/03/13 08:50:55;;;;;;;26.55;17.92;;;;;;;14.26;24.98;102353.44;5001656;28;20069;-59
2022/03/13 08:53:21;;;;;;;21.00;15.68;;;;;;;14.39;24.85;102364.75;5010479;28;20073;-60
2022/03/13 08:55:48;;;;;;;23.70;15.40;;;;;;;14.43;24.35;102362.19;5003504;28;20450;-60
2022/03/13 08:58:16;;;;;;;23.80;15.10;;;;;;;14.31;23.79;102366.47;5006243;28;20072;-60
2022/03/13 09:00:43;;;;;;;25.33;17.23;;;;;;;14.23;23.79;102374.28;5005999;28;20050;-59
2022/03/13 09:03:10;;;;;;;24.20;16.05;;;;;;;14.10;23.77;102382.97;5003077;28;20134;-59
2022/03/13 09:05:36;;;;;;;30.42;17.67;;;;;;;14.08;23.66;102379.47;5003468;28;20056;-60
2022/03/13 09:08:03;;;;;;;35.47;20.42;;;;;;;13.84;23.90;102377.63;5007687;28;20054;-59
2022/03/13 09:10:30;;;;;;;24.83;16.17;;;;;;;13.65;24.16;102378.41;5003731;28;20487;-59
2022/03/13 09:12:56;;;;;;;27.17;16.85;;;;;;;13.54;23.86;102378.34;5006213;28;20085;-57
2022/03/13 09:15:24;;;;;;;26.42;14.27;;;;;;;13.40;23.30;102382.59;5002527;28;20054;-56
2022/03/13 09:17:53;;;;;;;23.55;15.60;;;;;;;13.33;23.74;102386.03;5001891;28;20046;-56
2022/03/13 09:20:20;;;;;;;27.55;14.80;;;;;;;13.18;23.24;102384.19;4999033;28;20058;-55
2022/03/13 09:22:47;;;;;;;23.67;13.25;;;;;;;13.11;22.93;102384.97;5001653;28;20381;-54
2022/03/13 09:25:13;;;;;;;24.60;13.88;;;;;;;13.09;22.84;102377.16;5000365;28;20058;-54
2022/03/13 09:27:40;;;;;;;21.83;14.70;;;;;;;13.00;23.32;102379.66;5006870;28;20045;-56
2022/03/13 09:30:09;;;;;;;24.20;15.88;;;;;;;12.98;23.25;102377.91;4999721;28;20050;-54
2022/03/13 09:32:37;;;;;;;23.00;14.70;;;;;;;12.98;23.69;102383.09;4999041;28;20050;-56
2022/03/13 09:35:04;;;;;;;28.60;15.80;;;;;;;12.96;23.42;102380.50;5001784;28;20074;-54
2022/03/13 09:37:31;;;;;;;26.63;16.45;;;;;;;12.92;23.65;102378.72;5002131;28;20050;-56
2022/03/13 09:39:59;;;;;;;25.52;14.50;;;;;;;12.89;23.96;102376.09;5004453;28;20410;-56
2022/03/13 09:42:25;;;;;;;19.50;11.88;;;;;;;12.89;22.91;102374.38;5004260;28;20081;-55
2022/03/13 09:44:52;;;;;;;19.30;10.88;;;;;;;12.98;22.93;102377.91;5005309;28;20042;-55
2022/03/13 09:47:19;;;;;;;21.00;11.43;;;;;;;13.08;22.69;102372.81;5001682;28;20439;-54
2022/03/13 09:49:48;;;;;;;19.10;10.10;;;;;;;13.11;22.70;102379.75;5005583;28;20513;-56
2022/03/13 09:52:14;;;;;;;16.63;11.00;;;;;;;13.11;22.47;102380.63;5003500;28;20050;-56
2022/03/13 09:54:41;;;;;;;17.48;10.18;;;;;;;13.08;22.20;102380.63;5006803;28;20047;-56
2022/03/13 09:57:07;;;;;;;18.85;11.77;;;;;;;12.94;21.99;102371.81;5003972;28;20427;-54
2022/03/13 09:59:35;;;;;;;19.10;11.10;;;;;;;12.88;22.34;102376.97;5004014;28;20054;-55
2022/03/13 10:02:04;;;;;;;18.33;12.20;;;;;;;12.78;22.09;102376.00;5006838;28;20042;-55
2022/03/13 10:04:31;;;;;;;16.88;10.80;;;;;;;12.65;22.50;102374.16;5005203;28;20061;-55
2022/03/13 10:07:04;;;;;;;16.73;11.20;;;;;;;12.63;22.47;102370.69;5001049;28;20423;-55
2022/03/13 10:09:33;;;;;;;19.83;12.38;;;;;;;12.55;22.50;102368.00;5000861;28;20046;-54
2022/03/13 10:12:10;;;;;;;19.83;12.13;;;;;;;12.50;22.52;102374.03;5003382;28;20046;-54
2022/03/13 10:14:39;;;;;;;18.80;12.32;;;;;;;12.48;23.25;102366.19;5001069;28;20042;-55
2022/03/13 10:17:07;;;;;;;24.70;12.80;;;;;;;12.52;22.91;102367.13;5003713;28;20414;-56
2022/03/13 10:19:33;;;;;;;21.98;13.02;;;;;;;12.58;22.93;102356.75;5006744;28;20096;-55
2022/03/13 10:22:03;;;;;;;18.88;11.82;;;;;;;12.64;22.93;102352.50;5005006;28;20047;-56
2022/03/13 10:24:30;;;;;;;19.25;13.15;;;;;;;12.67;22.94;102353.38;5009412;28;20056;-55
2022/03/13 10:27:10;;;;;;;26.52;15.40;;;;;;;12.77;22.09;102355.19;5002397;28;20491;-56
2022/03/13 10:29:36;;;;;;;25.05;14.07;;;;;;;12.84;22.78;102355.25;5006696;28;20045;-56
2022/03/13 10:32:05;;;;;;;23.45;13.02;;;;;;;12.92;22.77;102355.31;5003464;28;20042;-56
2022/03/13 10:34:32;;;;;;;24.88;13.63;;;;;;;13.05;22.86;102358.91;5002286;28;20052;-56
2022/03/13 10:36:59;;;;;;;26.30;15.18;;;;;;;13.10;22.64;102362.41;5011686;28;20392;-56
2022/03/13 10:39:27;;;;;;;22.45;14.25;;;;;;;13.15;22.56;102358.09;5004261;28;20494;-56
2022/03/13 10:41:57;;;;;;;21.20;14.02;;;;;;;13.14;21.75;102358.97;5007328;28;20050;-55
2022/03/13 10:44:25;;;;;;;16.90;11.15;;;;;;;13.12;21.43;102351.13;5003730;28;20103;-56
2022/03/13 10:46:54;;;;;;;16.10;10.10;;;;;;;13.10;21.18;102345.06;5004344;28;20056;-55
2022/03/13 10:49:36;;;;;;;15.13;10.60;;;;;;;13.02;20.41;102348.47;5007976;28;20046;-54
2022/03/13 10:52:14;;;;;;;13.93;9.02;;;;;;;12.98;20.56;102344.06;5000207;28;20042;-56
2022/03/13 10:54:46;;;;;;;13.10;9.30;;;;;;;12.95;20.22;102343.19;4995924;28;20050;-55
2022/03/13 10:57:13;;;;;;;14.63;8.95;;;;;;;12.90;20.14;102344.88;5001203;28;20142;-55
2022/03/13 10:59:42;;;;;;;16.65;9.82;;;;;;;12.93;20.17;102338.81;5002184;28;20046;-55
2022/03/13 11:02:13;;;;;;;10.55;6.57;;;;;;;12.84;18.46;102336.16;5002110;28;20050;-55
2022/03/13 11:04:49;;;;;;;13.20;7.43;;;;;;;12.75;18.54;102328.28;4996430;28;20056;-55
2022/03/13 11:07:16;;;;;;;13.65;8.88;;;;;;;12.63;18.69;102329.94;5003281;28;20049;-56
2022/03/13 11:09:43;;;;;;;13.77;8.55;;;;;;;12.58;19.36;102326.41;5006880;28;20054;-54
2022/03/13 11:12:15;;;;;;;16.35;9.75;;;;;;;12.51;19.67;102329.84;5002886;28;20490;-55